SBOSBO NCL / EGNT
Speedbird OnlineSpeedbird Online NCL / EGNT

Newcastle Airport
09:34 13.7°C

Location Newcastle, United Kingdom
Latitude: 55.037498474121094
Longitude: -1.6916699409484863
Web Airport Website | Wikipedia
Altitude 81 Meter / 266 Feet
Distance 410 KM / 255 Miles
from London.
Time Zone UTC +1 hours (Europe/London)
Codes IATA: NCL
ICAO: EGNT
Runways
RunwayLength (m)Surface
072329Asphalt
252329Asphalt
Radio
TypeDescriptionFrequency
APPAPP124.375
ATISATIS118.375
GNDGND121.725
ILSRunway 07/25 ILS111.5
TWRTWR119.7
Live ATC
METAR EGNT 060650Z 25015G25KT 220V280 9999 SCT028 13/09 Q1014
TAF TAF EGNT 060454Z 0606/0706 23012KT 9999 SCT025 PROB30 TEMPO 0606/0706 24015G25KT PROB40 TEMPO 0616/0623 6000 SHRA TEMPO 0702/0706 6000 SHRA BKN012 PROB30 TEMPO 0703/0706 4000 +SHRA
Weather As Of 06 Oct 2022 09:34
Description Scattered clouds
Wind 35 km/h from West (260°)
Cloud Cover 40%
Precipitation Rain: none, Snow: none
Sunrise 07:18
Sunset 18:31
Lounges Aspire Lounge , Main Terminal
Rotations During the last 90 days there were
214 flights from LHR
210 flights to LHR
1 flights to STN


© 2017-2022 Speedbird Online